Time;durP1;ratioP1;P1;durP2;ratioP2;P2;SDS_P1;SDS_P2;PMS_P1;PMS_P2;Temp;Humidity;BMP_temperature;BMP_pressure;BME280_temperature;BME280_humidity;BME280_pressure;Samples;Min_cycle;Max_cycle;Signal;HPM_P1;HPM_P2
2023/07/09 00:01:37;;;;;;;9.20;5.63;;;;;;;22.47;94.42;157112.03;5029401;28;20028;-73
2023/07/09 00:04:03;;;;;;;13.87;6.07;;;;;;;22.37;93.19;157085.84;5048061;28;20025;-72
2023/07/09 00:06:29;;;;;;;;;;;;;;;22.31;94.83;157070.16;5049324;28;20393;-74
2023/07/09 00:08:55;;;;;;;10.65;5.70;;;;;;;22.31;93.82;157071.44;5048553;28;19924;-73
2023/07/09 00:11:21;;;;;;;10.90;6.05;;;;;;;22.26;93.30;157058.38;5049486;28;20112;-74
2023/07/09 00:13:46;;;;;;;11.63;6.00;;;;;;;22.22;94.26;157047.97;5047242;28;20103;-73
2023/07/09 00:16:16;;;;;;;13.40;6.37;;;;;;;22.19;93.71;157040.09;5050493;28;20064;-73
2023/07/09 00:18:42;;;;;;;15.55;6.70;;;;;;;22.08;95.15;157011.38;5015036;28;20119;-73
2023/07/09 00:21:08;;;;;;;12.32;5.88;;;;;;;22.07;94.16;157007.44;5051501;28;20013;-73
2023/07/09 00:23:33;;;;;;;12.67;6.13;;;;;;;22.06;92.66;157004.84;5049466;28;20044;-73
2023/07/09 00:25:59;;;;;;;17.47;7.20;;;;;;;22.03;93.89;156997.03;5032569;28;20496;-72
2023/07/09 00:28:25;;;;;;;10.77;6.10;;;;;;;21.98;95.32;156985.25;5050301;28;20110;-73
2023/07/09 00:30:50;;;;;;;10.55;6.22;;;;;;;21.93;95.31;156970.91;5031073;28;20380;-72
2023/07/09 00:33:19;;;;;;;8.30;6.10;;;;;;;21.93;95.83;156970.91;5033723;28;20103;-72
2023/07/09 00:35:48;;;;;;;11.48;5.85;;;;;;;21.95;95.19;156976.09;5048752;28;20044;-72
2023/07/09 00:38:22;;;;;;;11.82;5.72;;;;;;;21.92;95.65;156968.31;5050334;28;20029;-72
2023/07/09 00:41:11;;;;;;;18.80;6.47;;;;;;;21.94;96.45;156973.50;5032295;28;20021;-73
2023/07/09 00:43:38;;;;;;;12.50;6.05;;;;;;;21.91;94.85;156965.66;5047528;28;20488;-72
2023/07/09 00:46:19;;;;;;;12.77;5.90;;;;;;;21.85;94.98;156949.97;5046544;28;20029;-73
2023/07/09 00:48:47;;;;;;;16.75;6.32;;;;;;;21.80;95.00;156938.25;5046205;28;20056;-72
2023/07/09 00:51:20;;;;;;;12.80;6.32;;;;;;;21.76;95.38;156927.78;5049694;28;20039;-73
2023/07/09 00:53:49;;;;;;;12.63;6.28;;;;;;;21.76;96.40;156926.50;5047137;28;20044;-72
2023/07/09 00:56:20;;;;;;;14.63;6.05;;;;;;;21.73;95.88;156918.66;5049064;28;20049;-73
2023/07/09 00:58:47;;;;;;;21.27;12.05;;;;;;;21.69;96.79;156908.19;5048170;28;20108;-72
2023/07/09 01:01:18;;;;;;;19.00;10.13;;;;;;;21.72;97.55;156917.31;5029523;28;20507;-72
2023/07/09 01:03:59;;;;;;;19.33;7.60;;;;;;;21.67;96.94;156904.22;5026068;28;20028;-73
2023/07/09 01:06:35;;;;;;;12.02;6.88;;;;;;;21.65;97.40;156899.00;5047717;28;20048;-73
2023/07/09 01:09:01;;;;;;;12.88;6.90;;;;;;;21.67;96.98;156902.94;5049396;28;20025;-72
2023/07/09 01:11:27;;;;;;;18.60;6.63;;;;;;;21.61;97.30;156888.56;5048911;28;20102;-73
2023/07/09 01:13:57;;;;;;;13.38;6.95;;;;;;;21.64;98.41;156895.09;5049418;28;20536;-73
2023/07/09 01:16:27;;;;;;;15.25;6.97;;;;;;;21.58;97.84;156879.44;5029076;28;20029;-72
2023/07/09 01:18:53;;;;;;;13.13;6.70;;;;;;;21.58;97.56;156880.75;5049947;28;20365;-73
2023/07/09 01:21:19;;;;;;;19.83;6.70;;;;;;;21.52;99.50;156863.75;5047736;28;20032;-73
2023/07/09 01:23:49;;;;;;;11.18;6.20;;;;;;;21.51;100.00;156861.16;5047672;28;20044;-73
2023/07/09 01:26:18;;;;;;;10.98;6.22;;;;;;;21.49;100.00;156855.91;5048418;28;20449;-73
2023/07/09 01:28:44;;;;;;;15.60;6.50;;;;;;;21.44;100.00;156844.16;5046871;28;20033;-72
2023/07/09 01:31:11;;;;;;;15.10;6.35;;;;;;;21.43;98.86;156841.56;5045945;28;20024;-72
2023/07/09 01:33:39;;;;;;;15.32;6.60;;;;;;;21.40;99.65;156832.44;5030129;28;20029;-72
2023/07/09 01:36:06;;;;;;;10.55;5.97;;;;;;;21.37;100.00;156824.59;5049059;28;20044;-72
2023/07/09 01:38:32;;;;;;;11.20;6.40;;;;;;;21.32;100.00;156812.84;5031319;28;20112;-72
2023/07/09 01:40:57;;;;;;;15.87;6.60;;;;;;;21.35;100.00;156819.38;5031505;28;20520;-72
2023/07/09 01:43:24;;;;;;;12.00;6.53;;;;;;;21.31;100.00;156810.25;5052040;28;20025;-73
2023/07/09 01:45:51;;;;;;;14.20;6.30;;;;;;;21.29;100.00;156803.72;5050253;28;20029;-72
2023/07/09 01:48:19;;;;;;;12.05;6.20;;;;;;;21.23;100.00;156788.06;5050833;28;20067;-72
2023/07/09 01:50:49;;;;;;;10.23;7.10;;;;;;;21.20;100.00;156780.22;5048584;28;20044;-72
2023/07/09 01:53:16;;;;;;;10.80;6.75;;;;;;;21.14;100.00;156765.81;5050630;28;20523;-71
2023/07/09 01:55:42;;;;;;;19.75;7.10;;;;;;;21.14;100.00;156765.81;5052346;28;20426;-72
2023/07/09 01:58:08;;;;;;;13.55;6.55;;;;;;;21.28;100.00;156801.13;5053572;28;20035;-72
2023/07/09 02:00:36;;;;;;;;;;;;;;;21.29;100.00;156805.00;5053057;28;20035;-72
2023/07/09 02:03:03;;;;;;;14.35;6.65;;;;;;;21.21;100.00;156784.13;5034942;28;19970;-72
2023/07/09 02:05:31;;;;;;;16.48;7.13;;;;;;;21.20;100.00;156781.53;5028101;28;20395;-72
2023/07/09 02:07:57;;;;;;;16.20;7.78;;;;;;;21.19;100.00;156777.63;5049785;28;20060;-72
2023/07/09 02:10:28;;;;;;;12.20;6.55;;;;;;;21.16;100.00;156771.09;5051817;28;20393;-72
2023/07/09 02:12:54;;;;;;;14.50;6.37;;;;;;;21.15;100.00;156767.16;5033523;28;20036;-72
2023/07/09 02:15:20;;;;;;;16.17;7.55;;;;;;;21.11;100.00;156756.69;5032085;28;20119;-72
2023/07/09 02:17:46;;;;;;;10.77;6.60;;;;;;;21.09;100.00;156752.81;5048770;28;20033;-71
2023/07/09 02:20:13;;;;;;;14.43;6.43;;;;;;;21.06;100.00;156744.97;5017309;28;20447;-74
2023/07/09 02:22:40;;;;;;;12.27;7.00;;;;;;;21.02;100.00;156733.25;5051550;28;20025;-73
2023/07/09 02:25:07;;;;;;;10.63;6.85;;;;;;;21.01;100.00;156731.91;5034589;28;20039;-72
2023/07/09 02:27:33;;;;;;;14.50;7.07;;;;;;;20.99;100.00;156726.72;5050347;28;20035;-72
2023/07/09 02:29:58;;;;;;;10.82;6.20;;;;;;;20.96;100.00;156717.59;5034470;28;20388;-72
2023/07/09 02:32:26;;;;;;;9.33;6.50;;;;;;;20.90;100.00;156703.22;5050706;28;20044;-72
2023/07/09 02:34:53;;;;;;;14.50;6.78;;;;;;;20.96;100.00;156718.88;5051240;28;20431;-74
2023/07/09 02:37:22;;;;;;;15.18;6.28;;;;;;;20.92;100.00;156707.13;5051948;28;20025;-72
2023/07/09 02:39:48;;;;;;;16.60;8.15;;;;;;;20.91;100.00;156705.81;5051554;28;20036;-72
2023/07/09 02:42:16;;;;;;;13.45;7.30;;;;;;;20.95;100.00;156714.94;5052560;28;20075;-73
2023/07/09 02:44:42;;;;;;;12.15;6.88;;;;;;;20.92;100.00;156708.41;5030082;28;20029;-74
2023/07/09 02:47:08;;;;;;;11.63;6.65;;;;;;;20.86;100.00;156692.69;5032828;28;20025;-73
2023/07/09 02:49:34;;;;;;;14.25;7.20;;;;;;;20.84;100.00;156686.19;5015215;28;20445;-72
2023/07/09 02:52:00;;;;;;;12.85;6.53;;;;;;;20.80;100.00;156675.78;5050322;28;20041;-73
2023/07/09 02:54:26;;;;;;;13.80;7.57;;;;;;;20.80;100.00;156677.06;5033664;28;20045;-71
2023/07/09 02:56:52;;;;;;;16.00;7.53;;;;;;;20.78;100.00;156670.53;5050332;28;20039;-72
2023/07/09 02:59:18;;;;;;;12.23;6.70;;;;;;;20.78;100.00;156671.84;5031708;28;20025;-72
2023/07/09 03:01:44;;;;;;;13.52;7.25;;;;;;;20.74;100.00;156660.06;5050326;28;20058;-72
2023/07/09 03:04:09;;;;;;;11.38;6.47;;;;;;;20.75;100.00;156662.72;5050450;28;20036;-72
2023/07/09 03:06:36;;;;;;;14.93;7.60;;;;;;;20.75;100.00;156662.72;5032264;28;20116;-72
2023/07/09 03:09:03;;;;;;;12.65;7.15;;;;;;;20.74;100.00;156661.41;5052090;28;20032;-72
2023/07/09 03:11:33;;;;;;;10.35;6.93;;;;;;;20.76;100.00;156666.59;5046188;28;20483;-72
2023/07/09 03:14:00;;;;;;;16.17;7.35;;;;;;;20.76;100.00;156665.31;5050459;28;20041;-72
2023/07/09 03:16:29;;;;;;;;;;;;;;;20.72;100.00;156654.88;5049421;28;20021;-72
2023/07/09 03:18:55;;;;;;;12.90;6.88;;;;;;;20.70;100.00;156650.94;5027229;28;20003;-72
2023/07/09 03:21:25;;;;;;;14.60;6.70;;;;;;;20.73;100.00;156658.81;5030243;28;20521;-72
2023/07/09 03:23:53;;;;;;;13.68;6.88;;;;;;;20.74;100.00;156661.41;5052191;28;20020;-72
2023/07/09 03:26:18;;;;;;;;;;;;;;;20.70;100.00;156649.69;5051785;28;20090;-72
2023/07/09 03:28:44;;;;;;;15.90;6.97;;;;;;;20.72;100.00;156654.88;5048559;28;20672;-72
2023/07/09 03:31:09;;;;;;;15.00;7.77;;;;;;;20.73;100.00;156657.47;5048335;28;20106;-72
2023/07/09 03:33:35;;;;;;;15.10;7.50;;;;;;;20.75;100.00;156664.00;5018374;28;20290;-75
2023/07/09 03:36:00;;;;;;;13.73;6.70;;;;;;;20.74;100.00;156660.06;5030831;28;20024;-72
2023/07/09 03:38:26;;;;;;;15.00;7.03;;;;;;;20.76;100.00;156665.31;5001013;28;20554;-72
2023/07/09 03:40:53;;;;;;;10.90;6.50;;;;;;;20.75;100.00;156662.72;5051370;28;20143;-72
2023/07/09 03:43:19;;;;;;;14.23;7.50;;;;;;;20.77;100.00;156667.94;5050756;28;20048;-72
2023/07/09 03:45:46;;;;;;;14.10;6.70;;;;;;;20.79;100.00;156674.44;5031234;28;20028;-72
2023/07/09 03:48:12;;;;;;;13.65;7.85;;;;;;;20.81;100.00;156678.38;5049372;28;20032;-72
2023/07/09 03:50:37;;;;;;;10.80;6.68;;;;;;;20.82;100.00;156680.97;5031192;28;20048;-72
2023/07/09 03:53:03;;;;;;;12.57;7.60;;;;;;;20.81;100.00;156678.38;5032332;28;20049;-72
2023/07/09 03:55:28;;;;;;;18.48;7.18;;;;;;;20.82;100.00;156682.25;5049564;28;20035;-72
2023/07/09 03:57:55;;;;;;;10.10;6.23;;;;;;;20.87;100.00;156694.03;5049906;28;20119;-72
2023/07/09 04:00:20;;;;;;;14.35;6.72;;;;;;;20.85;100.00;156690.09;5032870;28;20025;-73
2023/07/09 04:02:46;;;;;;;8.63;6.33;;;;;;;20.87;100.00;156694.03;5049735;28;20029;-72
2023/07/09 04:05:13;;;;;;;15.90;7.53;;;;;;;20.89;100.00;156699.28;5030599;28;20115;-71
2023/07/09 04:07:38;;;;;;;14.30;7.03;;;;;;;20.91;100.00;156705.81;5049030;28;20508;-72
2023/07/09 04:10:05;;;;;;;11.93;7.73;;;;;;;20.94;100.00;156713.66;5049690;28;20043;-72
2023/07/09 04:12:30;;;;;;;;;;;;;;;21.02;100.00;156734.50;5049035;28;20282;-72
2023/07/09 04:14:56;;;;;;;14.50;7.85;;;;;;;21.07;100.00;156746.31;5050159;28;19920;-72
2023/07/09 04:17:24;;;;;;;17.03;7.73;;;;;;;21.09;100.00;156751.50;5049439;28;20039;-71
2023/07/09 04:19:52;;;;;;;14.85;7.95;;;;;;;21.13;100.00;156761.97;5050711;28;20387;-71
2023/07/09 04:22:18;;;;;;;14.57;7.60;;;;;;;21.12;100.00;156760.63;5047763;28;20017;-71
2023/07/09 04:24:44;;;;;;;15.37;7.53;;;;;;;21.15;100.00;156767.16;5048935;28;20672;-73
2023/07/09 04:27:09;;;;;;;21.55;8.05;;;;;;;21.25;100.00;156793.25;5045646;28;20036;-72
2023/07/09 04:29:35;;;;;;;12.37;7.03;;;;;;;21.25;100.00;156793.25;5046069;28;20037;-72
2023/07/09 04:32:02;;;;;;;9.63;7.80;;;;;;;21.31;100.00;156808.94;5048943;28;20108;-73
2023/07/09 04:34:27;;;;;;;15.95;7.57;;;;;;;21.37;100.00;156824.59;5048054;28;20040;-74
2023/07/09 04:36:53;;;;;;;15.87;7.40;;;;;;;21.43;100.00;156841.56;5052781;28;20033;-79
2023/07/09 04:39:18;;;;;;;12.87;7.17;;;;;;;21.45;100.00;156846.78;5052835;28;20033;-79
2023/07/09 04:41:44;;;;;;;10.43;7.00;;;;;;;21.51;100.00;156861.16;5027346;28;20047;-80
2023/07/09 04:44:10;;;;;;;10.37;7.10;;;;;;;21.59;100.00;156882.03;5050606;28;20112;-79
2023/07/09 04:46:35;;;;;;;;;;;;;;;21.66;100.00;156900.34;5029350;28;20029;-80
2023/07/09 04:49:01;;;;;;;12.50;7.05;;;;;;;21.74;100.00;156921.25;5028094;28;19939;-79
2023/07/09 04:51:28;;;;;;;9.88;7.55;;;;;;;21.88;100.00;156957.84;5045191;28;20377;-78
2023/07/09 04:53:54;;;;;;;13.45;7.05;;;;;;;21.94;100.00;156973.50;5024435;28;20285;-78
2023/07/09 04:56:20;;;;;;;18.10;6.57;;;;;;;22.03;100.00;156997.03;5052857;28;20024;-79
2023/07/09 04:58:48;;;;;;;13.20;7.80;;;;;;;22.14;100.00;157025.75;5035278;28;20086;-80
2023/07/09 05:01:15;;;;;;;11.15;7.22;;;;;;;22.25;100.00;157055.78;5031170;28;21023;-80
2023/07/09 05:03:40;;;;;;;;;;;;;;;22.39;100.00;157092.38;5049475;28;20090;-80
2023/07/09 05:19:01;;;;;;;14.20;8.05;;;;;;;23.26;96.09;157319.84;5345801;23;20103;-80
2023/07/09 05:21:27;;;;;;;12.33;7.67;;;;;;;23.49;94.92;157380.03;5038720;28;20485;-79
2023/07/09 05:23:52;;;;;;;14.47;6.67;;;;;;;23.67;94.43;157425.75;5053858;28;20712;-79
2023/07/09 05:39:14;;;;;;;11.10;7.13;;;;;;;25.36;84.95;157868.16;6086485;22;20020;-77
2023/07/09 05:41:39;;;;;;;14.90;6.97;;;;;;;25.48;84.03;157900.88;5082595;28;20061;-78
2023/07/09 05:44:05;;;;;;;18.58;7.03;;;;;;;25.59;83.05;157928.38;5062438;28;20407;-77
2023/07/09 05:46:36;;;;;;;10.88;6.78;;;;;;;25.82;80.14;157988.63;5057047;28;20127;-79
2023/07/09 05:49:02;;;;;;;12.18;7.13;;;;;;;25.99;80.31;158033.22;5058280;28;20028;-79
2023/07/09 05:56:35;;;;;;;9.77;6.82;;;;;;;26.30;78.30;158114.44;5009065;28;20038;-78
2023/07/09 05:59:01;;;;;;;9.27;6.40;;;;;;;26.42;78.15;158145.84;5009840;28;20040;-79
2023/07/09 06:01:27;;;;;;;16.88;6.97;;;;;;;26.64;77.47;158203.56;5125687;23;20299;-78
2023/07/09 06:03:54;;;;;;;11.88;6.85;;;;;;;27.11;72.95;158328.03;5015154;28;20075;-79
2023/07/09 06:06:19;;;;;;;11.60;6.90;;;;;;;27.01;74.99;158300.53;5015157;28;20378;-79
2023/07/09 06:08:46;;;;;;;13.68;7.18;;;;;;;27.09;74.21;158322.81;5033772;28;20049;-79
2023/07/09 06:11:12;;;;;;;11.77;6.15;;;;;;;27.14;73.91;158335.91;5023938;28;20040;-78
2023/07/09 06:13:37;;;;;;;9.90;7.15;;;;;;;27.39;72.32;158401.53;5033876;28;20436;-79
2023/07/09 06:16:03;;;;;;;17.67;7.03;;;;;;;27.63;69.09;158464.44;5014623;28;20041;-80
2023/07/09 06:18:29;;;;;;;15.00;6.72;;;;;;;27.76;68.26;158498.56;5022822;28;20408;-79
2023/07/09 06:20:58;;;;;;;17.55;7.40;;;;;;;27.95;67.88;158547.13;4995071;28;20148;-79
2023/07/09 06:23:24;;;;;;;10.75;6.72;;;;;;;28.17;67.88;158604.84;5016043;28;20029;-79
2023/07/09 06:25:50;;;;;;;;;;;;;;;28.38;66.78;158661.28;4999307;28;20473;-79
2023/07/09 06:28:20;;;;;;;12.70;6.55;;;;;;;28.60;65.29;158717.72;4995657;28;19922;-78
2023/07/09 06:30:46;;;;;;;10.68;6.78;;;;;;;28.98;65.38;158818.75;5012465;28;20405;-79
2023/07/09 06:33:12;;;;;;;;;;;;;;;29.08;64.00;158843.72;5016309;28;20029;-79
2023/07/09 06:35:39;;;;;;;13.15;6.78;;;;;;;28.93;64.67;158804.31;5013264;28;19917;-78
2023/07/09 06:38:06;;;;;;;12.27;6.07;;;;;;;29.11;64.62;158851.59;5030948;28;20434;-79
2023/07/09 06:40:31;;;;;;;17.15;7.68;;;;;;;29.23;62.39;158884.41;5014332;28;20080;-78
2023/07/09 06:42:57;;;;;;;;;;;;;;;29.43;62.08;158935.59;5014634;28;20104;-79
2023/07/09 06:45:23;;;;;;;16.13;7.10;;;;;;;29.62;61.06;158985.56;5013869;28;19920;-78
2023/07/09 06:47:49;;;;;;;13.35;7.57;;;;;;;29.81;60.19;159035.41;5030769;28;20025;-79
2023/07/09 06:50:14;;;;;;;;;;;;;;;29.98;62.20;159080.09;5011718;28;20106;-79
2023/07/09 06:52:40;;;;;;;19.35;7.28;;;;;;;30.12;60.08;159116.91;5014269;28;19928;-79
2023/07/09 06:55:06;;;;;;;16.33;7.45;;;;;;;30.29;58.78;159162.88;5031950;28;20033;-78
2023/07/09 07:00:07;;;;;;;15.80;7.45;;;;;;;30.72;57.35;159274.63;5439173;22;20053;-79
2023/07/09 07:02:33;;;;;;;12.07;7.10;;;;;;;30.24;58.13;159149.72;5008281;28;20104;-78
2023/07/09 07:04:58;;;;;;;17.38;8.00;;;;;;;29.55;59.02;158967.19;5014197;28;20027;-79
2023/07/09 07:20:20;;;;;;;17.43;8.33;;;;;;;29.85;57.98;159045.94;6075840;23;20103;-78
2023/07/09 07:22:45;;;;;;;;;;;;;;;29.69;59.51;159003.91;5032811;28;20022;-78
2023/07/09 07:25:12;;;;;;;16.80;9.73;;;;;;;29.60;59.96;158980.31;5031381;28;19924;-77
2023/07/09 07:27:37;;;;;;;20.35;10.05;;;;;;;29.66;60.04;158996.06;5014274;28;20063;-77
2023/07/09 07:30:03;;;;;;;;;;;;;;;29.87;60.09;159051.22;5026805;28;20468;-74
2023/07/09 07:32:28;;;;;;;13.35;10.35;;;;;;;29.60;58.69;158980.31;5010440;28;19912;-73
2023/07/09 07:34:54;;;;;;;;;;;;;;;29.73;59.15;159014.44;5029124;28;20111;-72
2023/07/09 07:37:21;;;;;;;15.45;9.15;;;;;;;29.69;58.30;159003.91;5023721;28;19931;-72
2023/07/09 07:39:47;;;;;;;15.65;10.73;;;;;;;29.84;58.82;159043.31;5026645;28;20401;-73
2023/07/09 07:42:14;;;;;;;19.58;12.68;;;;;;;29.96;58.56;159074.81;5008297;28;20040;-73
2023/07/09 07:44:41;;;;;;;25.10;13.10;;;;;;;30.14;58.84;159122.19;5010306;28;20065;-72
2023/07/09 07:47:08;;;;;;;20.40;15.85;;;;;;;29.53;59.92;158963.19;5024532;28;20274;-73
2023/07/09 07:49:33;;;;;;;27.05;15.65;;;;;;;29.54;61.37;158964.53;5028585;28;20041;-72
2023/07/09 07:52:03;;;;;;;23.52;16.77;;;;;;;29.44;60.48;158939.53;5006774;28;20488;-72
2023/07/09 07:54:29;;;;;;;24.73;16.52;;;;;;;29.49;60.76;158951.34;5029179;28;20044;-73
2023/07/09 07:56:54;;;;;;;;;;;;;;;29.27;60.56;158893.59;5027383;28;20450;-73
2023/07/09 07:59:20;;;;;;;26.70;15.65;;;;;;;29.37;58.93;158921.19;5006445;28;19952;-73
2023/07/09 08:01:45;;;;;;;26.98;14.60;;;;;;;29.51;57.64;158956.63;5025295;28;20052;-73
2023/07/09 08:04:10;;;;;;;23.95;13.20;;;;;;;29.29;56.63;158898.88;5027452;28;20133;-73
2023/07/09 08:06:36;;;;;;;;;;;;;;;29.65;54.62;158993.41;5027883;28;20045;-73
2023/07/09 08:09:02;;;;;;;23.23;12.60;;;;;;;29.08;54.00;158843.72;5020575;28;19931;-73
2023/07/09 08:11:29;;;;;;;23.23;13.32;;;;;;;29.05;54.47;158835.84;5025810;28;20037;-73
2023/07/09 08:13:55;;;;;;;18.98;12.45;;;;;;;29.37;53.65;158919.84;5006583;28;20041;-72
2023/07/09 08:16:21;;;;;;;18.48;11.93;;;;;;;29.83;53.72;159041.97;5024404;28;20404;-72
2023/07/09 08:18:46;;;;;;;22.38;13.60;;;;;;;29.21;55.08;158877.84;5021365;28;20148;-73
2023/07/09 08:21:13;;;;;;;;;;;;;;;28.65;56.51;158730.84;5013609;28;20049;-72
2023/07/09 08:23:39;;;;;;;25.30;16.52;;;;;;;28.53;57.78;158700.63;5039629;28;20233;-72
2023/07/09 08:26:05;;;;;;;19.58;14.63;;;;;;;28.61;58.04;158721.66;5043834;28;20510;-72
2023/07/09 08:28:30;;;;;;;;;;;;;;;28.37;59.36;158657.28;5024553;28;20033;-72
2023/07/09 08:30:56;;;;;;;16.52;12.40;;;;;;;28.49;58.96;158690.13;5042757;28;19912;-73
2023/07/09 08:33:22;;;;;;;;;;;;;;;28.44;56.25;158677.00;5042800;28;20444;-73
2023/07/09 08:35:49;;;;;;;19.13;12.63;;;;;;;28.57;56.03;158711.16;5023720;28;19926;-73
2023/07/09 08:38:14;;;;;;;17.13;12.85;;;;;;;28.35;57.49;158652.03;5036946;28;20051;-72
2023/07/09 08:40:41;;;;;;;14.18;10.65;;;;;;;28.63;57.11;158725.53;5044893;28;20025;-73
2023/07/09 08:43:31;;;;;;;23.88;13.50;;;;;;;28.33;57.31;158646.81;5042933;28;20442;-73
2023/07/09 08:46:14;;;;;;;20.08;14.00;;;;;;;28.02;58.42;158565.47;5043212;28;20032;-72
2023/07/09 08:48:44;;;;;;;23.02;13.25;;;;;;;28.09;58.77;158583.81;5043229;28;20100;-72
2023/07/09 08:51:16;;;;;;;24.65;11.77;;;;;;;28.16;59.39;158602.22;5038804;28;20032;-72
2023/07/09 08:53:53;;;;;;;20.77;13.18;;;;;;;28.41;57.89;158667.84;5041475;28;20028;-72
2023/07/09 08:56:19;;;;;;;17.33;12.57;;;;;;;28.41;58.66;158667.84;5040702;28;20040;-72
2023/07/09 08:58:47;;;;;;;18.27;11.90;;;;;;;28.14;60.25;158596.94;5043469;28;20424;-72
2023/07/09 09:01:24;;;;;;;26.50;10.80;;;;;;;28.54;59.63;158701.97;5024204;28;20037;-72
2023/07/09 09:03:53;;;;;;;20.95;10.85;;;;;;;28.19;59.63;158610.06;5043923;28;20056;-72
2023/07/09 09:06:31;;;;;;;19.02;11.55;;;;;;;28.20;59.52;158614.00;5046120;28;20044;-72
2023/07/09 09:09:21;;;;;;;18.05;9.98;;;;;;;28.29;58.88;158637.63;5047314;28;20648;-71
2023/07/09 09:11:57;;;;;;;23.95;10.13;;;;;;;28.16;59.97;158602.22;5047122;28;20033;-72
2023/07/09 09:14:36;;;;;;;12.85;8.55;;;;;;;28.46;58.58;158680.94;5045510;28;20103;-72
2023/07/09 09:17:04;;;;;;;11.43;8.10;;;;;;;28.84;58.30;158780.66;5045708;28;20032;-71
2023/07/09 09:19:48;;;;;;;11.43;7.95;;;;;;;29.10;57.62;158850.31;5046630;28;20033;-72
2023/07/09 09:22:18;;;;;;;16.20;10.32;;;;;;;29.05;56.31;158835.84;5042917;28;20057;-72
2023/07/09 09:25:13;;;;;;;14.45;10.77;;;;;;;29.14;55.95;158859.47;5036315;28;20509;-71
2023/07/09 09:27:40;;;;;;;18.20;9.90;;;;;;;29.02;56.57;158828.00;5012109;28;20046;-72
2023/07/09 09:30:23;;;;;;;22.42;9.35;;;;;;;29.12;55.50;158854.25;5024756;28;20622;-72
2023/07/09 09:32:55;;;;;;;11.90;7.97;;;;;;;29.53;54.57;158961.84;5011273;28;20030;-72
2023/07/09 09:35:30;;;;;;;9.93;7.25;;;;;;;29.84;52.88;159043.31;5045724;28;20033;-72
2023/07/09 09:37:57;;;;;;;15.50;7.78;;;;;;;29.71;53.15;159009.19;5031913;28;20116;-72
2023/07/09 09:40:24;;;;;;;13.30;8.10;;;;;;;29.61;52.91;158984.22;5038267;28;20044;-71
2023/07/09 09:42:51;;;;;;;11.20;6.63;;;;;;;29.94;53.15;159069.59;5017769;28;20043;-72
2023/07/09 09:45:19;;;;;;;19.20;8.35;;;;;;;29.91;53.23;159061.69;5045925;28;20028;-72
2023/07/09 09:47:45;;;;;;;13.93;9.43;;;;;;;29.69;52.72;159003.91;5041383;28;20484;-72
2023/07/09 09:50:19;;;;;;;20.65;7.80;;;;;;;29.38;54.33;158923.78;5041774;28;20110;-72
2023/07/09 09:52:47;;;;;;;19.98;8.60;;;;;;;29.71;53.60;159010.47;5041685;28;20131;-72
2023/07/09 09:55:29;;;;;;;17.45;7.65;;;;;;;29.93;53.56;159068.25;5026962;28;20568;-72
2023/07/09 09:57:56;;;;;;;14.55;8.15;;;;;;;29.84;53.15;159043.31;5037707;28;20109;-72
2023/07/09 10:00:25;;;;;;;17.30;7.80;;;;;;;29.82;53.75;159039.38;5032005;28;20088;-72
2023/07/09 10:02:50;;;;;;;18.50;8.48;;;;;;;30.24;52.51;159148.44;5041372;28;20500;-72
2023/07/09 10:05:20;;;;;;;13.10;8.10;;;;;;;30.22;52.32;159144.50;5052024;28;20029;-72
2023/07/09 10:07:57;;;;;;;12.77;8.43;;;;;;;30.14;52.28;159122.19;5050020;28;20032;-72
2023/07/09 10:10:28;;;;;;;13.55;7.40;;;;;;;30.69;51.54;159268.03;5043411;28;20078;-72
2023/07/09 10:13:13;;;;;;;17.10;7.43;;;;;;;30.88;51.09;159316.66;5044835;28;20494;-72
2023/07/09 10:15:51;;;;;;;14.52;6.93;;;;;;;30.74;51.62;159279.84;5042999;28;20377;-71
2023/07/09 10:18:36;;;;;;;9.55;7.90;;;;;;;30.41;50.78;159193.09;5047137;28;20025;-71
2023/07/09 10:21:26;;;;;;;14.32;7.47;;;;;;;31.10;51.03;159375.75;5028863;28;20449;-72
2023/07/09 10:24:07;;;;;;;15.55;9.30;;;;;;;30.84;49.87;159307.41;5034967;28;20124;-73
2023/07/09 10:26:46;;;;;;;17.77;8.43;;;;;;;31.13;50.13;159382.34;5037012;28;20507;-72
2023/07/09 10:29:39;;;;;;;19.65;9.13;;;;;;;30.89;49.48;159319.28;5049050;28;20024;-72
2023/07/09 10:32:35;;;;;;;15.50;8.38;;;;;;;31.25;49.28;159413.91;5050114;28;20131;-72
2023/07/09 10:35:16;;;;;;;17.13;8.68;;;;;;;31.83;49.54;159567.78;5051808;28;20139;-73
2023/07/09 10:38:07;;;;;;;13.20;8.73;;;;;;;31.46;48.92;159470.44;5047675;28;20047;-72
2023/07/09 10:41:03;;;;;;;15.07;8.77;;;;;;;31.81;48.33;159562.56;5048555;28;20052;-72
2023/07/09 10:43:41;;;;;;;12.43;8.80;;;;;;;31.40;49.39;159453.34;5028435;28;20033;-71
2023/07/09 10:46:19;;;;;;;15.70;8.85;;;;;;;31.41;48.71;159455.97;5049359;28;20078;-71
2023/07/09 10:48:48;;;;;;;16.08;9.48;;;;;;;31.80;49.60;159558.59;5039846;28;20029;-72
2023/07/09 10:51:28;;;;;;;19.95;10.38;;;;;;;32.12;47.78;159644.03;5049714;28;20508;-72
2023/07/09 10:54:01;;;;;;;20.73;10.50;;;;;;;31.73;49.35;159540.16;5033349;28;20108;-72
2023/07/09 10:56:29;;;;;;;18.98;10.27;;;;;;;31.41;49.14;159455.97;5033542;28;20025;-73
2023/07/09 10:59:00;;;;;;;21.40;11.98;;;;;;;31.29;49.71;159425.78;5042813;28;20039;-72
2023/07/09 11:01:32;;;;;;;15.85;10.63;;;;;;;31.79;49.14;159555.97;5034663;28;20083;-72
2023/07/09 11:04:05;;;;;;;19.60;9.77;;;;;;;31.97;49.23;159603.28;5016092;28;20025;-72
2023/07/09 11:06:44;;;;;;;17.77;10.20;;;;;;;31.77;49.48;159550.69;5047500;28;20110;-72
2023/07/09 11:09:39;;;;;;;13.60;9.23;;;;;;;31.83;49.09;159566.47;5045024;28;20029;-72
2023/07/09 11:12:11;;;;;;;24.15;12.95;;;;;;;31.60;49.57;159507.28;5046915;28;20112;-72
2023/07/09 11:14:43;;;;;;;14.88;10.98;;;;;;;31.25;49.59;159415.25;5048529;28;20029;-72
2023/07/09 11:17:17;;;;;;;18.45;9.85;;;;;;;31.16;51.41;159391.53;5030360;28;20043;-72
2023/07/09 11:19:47;;;;;;;19.52;11.13;;;;;;;30.95;49.95;159335.03;5047818;28;20032;-73
2023/07/09 11:22:23;;;;;;;18.95;9.82;;;;;;;31.08;50.99;159369.19;5045394;28;20074;-72
2023/07/09 11:25:10;;;;;;;16.92;10.07;;;;;;;31.21;50.19;159403.44;5036539;28;20069;-72
2023/07/09 11:27:48;;;;;;;15.77;10.30;;;;;;;30.97;50.75;159341.63;5041884;28;20021;-72
2023/07/09 11:30:25;;;;;;;18.83;9.27;;;;;;;30.86;51.02;159311.38;5033675;28;20108;-73
2023/07/09 11:33:28;;;;;;;12.27;7.63;;;;;;;30.74;50.80;159281.13;5040916;28;20044;-73
2023/07/09 11:36:08;;;;;;;15.48;7.05;;;;;;;30.87;50.68;159314.00;5028605;28;20035;-72
2023/07/09 11:38:52;;;;;;;10.15;6.97;;;;;;;31.04;52.16;159358.72;5045552;28;20643;-72
2023/07/09 11:41:40;;;;;;;11.35;7.03;;;;;;;31.07;50.43;159367.91;5047553;28;20036;-72
2023/07/09 11:44:08;;;;;;;8.38;5.18;;;;;;;30.89;49.69;159320.56;5043716;28;20037;-73
2023/07/09 11:46:36;;;;;;;7.38;3.97;;;;;;;30.89;50.02;159319.28;5029434;28;20032;-71
2023/07/09 11:49:02;;;;;;;7.00;3.80;;;;;;;31.24;48.55;159412.63;5011520;28;20120;-72
2023/07/09 11:51:40;;;;;;;;;;;;;;;31.34;48.06;159437.59;5036780;28;20043;-72
2023/07/09 11:54:05;;;;;;;6.35;3.40;;;;;;;30.92;48.46;159328.47;5038288;28;20397;-72
2023/07/09 11:56:31;;;;;;;;;;;;;;;31.17;48.72;159394.19;5041720;28;20084;-72
2023/07/09 11:58:58;;;;;;;8.88;3.67;;;;;;;31.17;48.87;159394.19;5037324;28;19934;-72
2023/07/09 12:01:30;;;;;;;7.97;3.63;;;;;;;31.27;47.98;159419.19;5031222;28;20477;-72
2023/07/09 12:03:57;;;;;;;5.65;3.65;;;;;;;31.47;47.00;159471.78;5028824;28;20071;-71
2023/07/09 12:06:33;;;;;;;6.32;3.70;;;;;;;31.77;46.67;159552.00;5025950;28;20036;-71
2023/07/09 12:08:59;;;;;;;6.78;3.47;;;;;;;31.81;46.92;159562.56;5040876;28;20440;-71
2023/07/09 12:11:31;;;;;;;10.63;3.50;;;;;;;31.47;46.91;159471.78;5034937;28;20036;-71
2023/07/09 12:14:11;;;;;;;5.78;3.40;;;;;;;31.67;47.24;159524.34;5032574;28;20519;-71
2023/07/09 12:16:39;;;;;;;4.60;3.50;;;;;;;32.15;45.11;159651.94;5027799;28;20553;-71